sensor_id;sensor_type;location;lat;lon;timestamp;temperature;humidity
19258;DHT22;9763;48.780;9.212;2024-01-15T00:00:03;1.80;80.40
19258;DHT22;9763;48.780;9.212;2024-01-15T00:03:31;1.90;80.70
19258;DHT22;9763;48.780;9.212;2024-01-15T00:06:57;1.90;81.00
19258;DHT22;9763;48.780;9.212;2024-01-15T00:10:20;1.90;79.90
19258;DHT22;9763;48.780;9.212;2024-01-15T00:13:44;1.90;79.40
19258;DHT22;9763;48.780;9.212;2024-01-15T00:17:07;1.90;79.30
19258;DHT22;9763;48.780;9.212;2024-01-15T00:20:31;1.90;79.30
19258;DHT22;9763;48.780;9.212;2024-01-15T00:23:56;1.90;78.90
19258;DHT22;9763;48.780;9.212;2024-01-15T00:27:20;1.90;78.20
19258;DHT22;9763;48.780;9.212;2024-01-15T00:30:44;1.80;78.00
19258;DHT22;9763;48.780;9.212;2024-01-15T00:34:08;1.80;77.60
19258;DHT22;9763;48.780;9.212;2024-01-15T00:37:32;1.70;77.50
19258;DHT22;9763;48.780;9.212;2024-01-15T00:40:57;1.60;77.60
19258;DHT22;9763;48.780;9.212;2024-01-15T00:44:20;1.60;77.70
19258;DHT22;9763;48.780;9.212;2024-01-15T00:47:44;1.50;78.10
19258;DHT22;9763;48.780;9.212;2024-01-15T00:51:07;1.50;77.90
19258;DHT22;9763;48.780;9.212;2024-01-15T00:54:31;1.40;78.20
19258;DHT22;9763;48.780;9.212;2024-01-15T00:57:56;1.40;78.10
19258;DHT22;9763;48.780;9.212;2024-01-15T01:01:19;1.30;77.90
19258;DHT22;9763;48.780;9.212;2024-01-15T01:04:43;1.30;78.00
19258;DHT22;9763;48.780;9.212;2024-01-15T01:08:06;1.30;77.90
19258;DHT22;9763;48.780;9.212;2024-01-15T01:11:30;1.30;78.20
19258;DHT22;9763;48.780;9.212;2024-01-15T01:14:55;1.20;78.40
19258;DHT22;9763;48.780;9.212;2024-01-15T01:18:19;1.30;78.70
19258;DHT22;9763;48.780;9.212;2024-01-15T01:21:42;1.20;78.70
19258;DHT22;9763;48.780;9.212;2024-01-15T01:25:07;1.30;79.00
19258;DHT22;9763;48.780;9.212;2024-01-15T01:28:31;1.30;79.50
19258;DHT22;9763;48.780;9.212;2024-01-15T01:31:56;1.30;79.90
19258;DHT22;9763;48.780;9.212;2024-01-15T01:35:19;1.40;80.40
19258;DHT22;9763;48.780;9.212;2024-01-15T01:38:43;1.40;80.00
19258;DHT22;9763;48.780;9.212;2024-01-15T01:42:07;1.50;80.20
19258;DHT22;9763;48.780;9.212;2024-01-15T01:45:31;1.50;80.10
19258;DHT22;9763;48.780;9.212;2024-01-15T01:48:56;1.50;80.30
19258;DHT22;9763;48.780;9.212;2024-01-15T01:52:25;1.60;80.40
19258;DHT22;9763;48.780;9.212;2024-01-15T01:55:50;1.70;81.00
19258;DHT22;9763;48.780;9.212;2024-01-15T01:59:14;1.70;80.70
19258;DHT22;9763;48.780;9.212;2024-01-15T02:02:38;1.80;80.40
19258;DHT22;9763;48.780;9.212;2024-01-15T02:06:03;1.80;80.60
19258;DHT22;9763;48.780;9.212;2024-01-15T02:09:27;1.90;80.60
19258;DHT22;9763;48.780;9.212;2024-01-15T02:12:51;1.90;80.30
19258;DHT22;9763;48.780;9.212;2024-01-15T02:16:14;1.90;80.40
19258;DHT22;9763;48.780;9.212;2024-01-15T02:19:38;1.90;80.30
19258;DHT22;9763;48.780;9.212;2024-01-15T02:23:11;1.90;80.20
19258;DHT22;9763;48.780;9.212;2024-01-15T02:26:36;1.90;80.20
19258;DHT22;9763;48.780;9.212;2024-01-15T02:30:01;1.90;80.00
19258;DHT22;9763;48.780;9.212;2024-01-15T02:33:25;1.90;80.00
19258;DHT22;9763;48.780;9.212;2024-01-15T02:36:49;1.90;79.60
19258;DHT22;9763;48.780;9.212;2024-01-15T02:40:14;1.90;79.50
19258;DHT22;9763;48.780;9.212;2024-01-15T02:43:37;1.90;79.40
19258;DHT22;9763;48.780;9.212;2024-01-15T02:47:01;1.80;79.20
19258;DHT22;9763;48.780;9.212;2024-01-15T02:50:25;1.80;79.40
19258;DHT22;9763;48.780;9.212;2024-01-15T02:53:49;1.80;79.10
19258;DHT22;9763;48.780;9.212;2024-01-15T02:57:15;1.80;78.80
19258;DHT22;9763;48.780;9.212;2024-01-15T03:00:38;1.70;78.50
19258;DHT22;9763;48.780;9.212;2024-01-15T03:04:02;1.70;78.50
19258;DHT22;9763;48.780;9.212;2024-01-15T03:07:27;1.70;78.50
19258;DHT22;9763;48.780;9.212;2024-01-15T03:10:51;1.60;78.10
19258;DHT22;9763;48.780;9.212;2024-01-15T03:14:17;1.60;78.10
19258;DHT22;9763;48.780;9.212;2024-01-15T03:17:41;1.60;79.00
19258;DHT22;9763;48.780;9.212;2024-01-15T03:21:06;1.50;78.00
19258;DHT22;9763;48.780;9.212;2024-01-15T03:24:31;1.50;78.20
19258;DHT22;9763;48.780;9.212;2024-01-15T03:27:55;1.50;78.60
19258;DHT22;9763;48.780;9.212;2024-01-15T03:31:20;1.50;78.50
19258;DHT22;9763;48.780;9.212;2024-01-15T03:34:43;1.40;78.50
19258;DHT22;9763;48.780;9.212;2024-01-15T03:38:08;1.40;78.70
19258;DHT22;9763;48.780;9.212;2024-01-15T03:41:31;1.40;78.70
19258;DHT22;9763;48.780;9.212;2024-01-15T03:44:55;1.40;79.00
19258;DHT22;9763;48.780;9.212;2024-01-15T03:48:19;1.40;79.00
19258;DHT22;9763;48.780;9.212;2024-01-15T03:51:43;1.40;79.00
19258;DHT22;9763;48.780;9.212;2024-01-15T03:55:08;1.30;78.80
19258;DHT22;9763;48.780;9.212;2024-01-15T03:58:31;1.40;79.10
19258;DHT22;9763;48.780;9.212;2024-01-15T04:01:55;1.40;79.40
19258;DHT22;9763;48.780;9.212;2024-01-15T04:05:20;1.40;79.60
19258;DHT22;9763;48.780;9.212;2024-01-15T04:08:43;1.40;79.80
19258;DHT22;9763;48.780;9.212;2024-01-15T04:12:07;1.50;80.00
19258;DHT22;9763;48.780;9.212;2024-01-15T04:15:31;1.50;79.90
19258;DHT22;9763;48.780;9.212;2024-01-15T04:18:55;1.60;80.00
19258;DHT22;9763;48.780;9.212;2024-01-15T04:22:19;1.60;80.10
19258;DHT22;9763;48.780;9.212;2024-01-15T04:25:43;1.70;80.20
19258;DHT22;9763;48.780;9.212;2024-01-15T04:29:07;1.70;80.50
19258;DHT22;9763;48.780;9.212;2024-01-15T04:32:31;1.80;80.60
19258;DHT22;9763;48.780;9.212;2024-01-15T04:35:54;1.80;80.50
19258;DHT22;9763;48.780;9.212;2024-01-15T04:39:19;1.90;80.70
19258;DHT22;9763;48.780;9.212;2024-01-15T04:42:44;1.90;80.90
19258;DHT22;9763;48.780;9.212;2024-01-15T04:46:08;2.00;81.00
19258;DHT22;9763;48.780;9.212;2024-01-15T04:49:32;2.10;81.20
19258;DHT22;9763;48.780;9.212;2024-01-15T04:52:55;2.10;81.10
19258;DHT22;9763;48.780;9.212;2024-01-15T04:56:20;2.20;81.40
19258;DHT22;9763;48.780;9.212;2024-01-15T04:59:43;2.20;81.30
19258;DHT22;9763;48.780;9.212;2024-01-15T05:03:07;2.30;81.10
19258;DHT22;9763;48.780;9.212;2024-01-15T05:06:31;2.30;81.20
19258;DHT22;9763;48.780;9.212;2024-01-15T05:09:55;2.40;80.90
19258;DHT22;9763;48.780;9.212;2024-01-15T05:13:20;2.40;81.30
19258;DHT22;9763;48.780;9.212;2024-01-15T05:16:46;2.40;81.30
19258;DHT22;9763;48.780;9.212;2024-01-15T05:20:11;2.50;81.00
19258;DHT22;9763;48.780;9.212;2024-01-15T05:23:34;2.50;81.40
19258;DHT22;9763;48.780;9.212;2024-01-15T05:26:58;2.50;81.30
19258;DHT22;9763;48.780;9.212;2024-01-15T05:30:23;2.60;81.20
19258;DHT22;9763;48.780;9.212;2024-01-15T05:33:47;2.60;81.10
19258;DHT22;9763;48.780;9.212;2024-01-15T05:37:10;2.60;81.20
19258;DHT22;9763;48.780;9.212;2024-01-15T05:40:34;2.60;80.90
19258;DHT22;9763;48.780;9.212;2024-01-15T05:43:58;2.60;80.70
19258;DHT22;9763;48.780;9.212;2024-01-15T05:47:23;2.70;81.00
19258;DHT22;9763;48.780;9.212;2024-01-15T05:50:46;2.70;80.60
19258;DHT22;9763;48.780;9.212;2024-01-15T05:54:10;2.70;80.50
19258;DHT22;9763;48.780;9.212;2024-01-15T05:57:34;2.70;80.70
19258;DHT22;9763;48.780;9.212;2024-01-15T06:00:57;2.70;80.50
19258;DHT22;9763;48.780;9.212;2024-01-15T06:04:22;2.80;80.20
19258;DHT22;9763;48.780;9.212;2024-01-15T06:07:46;2.80;80.60
19258;DHT22;9763;48.780;9.212;2024-01-15T06:11:10;2.80;80.30
19258;DHT22;9763;48.780;9.212;2024-01-15T06:14:33;2.80;80.50
19258;DHT22;9763;48.780;9.212;2024-01-15T06:17:57;2.80;80.70
19258;DHT22;9763;48.780;9.212;2024-01-15T06:21:22;2.80;80.80
19258;DHT22;9763;48.780;9.212;2024-01-15T06:24:45;2.80;80.70
19258;DHT22;9763;48.780;9.212;2024-01-15T06:28:09;2.80;80.50
19258;DHT22;9763;48.780;9.212;2024-01-15T06:31:33;2.80;80.70
19258;DHT22;9763;48.780;9.212;2024-01-15T06:34:57;2.80;80.40
19258;DHT22;9763;48.780;9.212;2024-01-15T06:38:21;2.80;80.50
19258;DHT22;9763;48.780;9.212;2024-01-15T06:41:45;2.80;80.40
19258;DHT22;9763;48.780;9.212;2024-01-15T06:45:09;2.80;80.40
19258;DHT22;9763;48.780;9.212;2024-01-15T06:48:32;2.90;80.60
19258;DHT22;9763;48.780;9.212;2024-01-15T06:51:56;2.80;80.30
19258;DHT22;9763;48.780;9.212;2024-01-15T06:55:21;2.80;80.40
19258;DHT22;9763;48.780;9.212;2024-01-15T06:58:45;2.90;80.70
19258;DHT22;9763;48.780;9.212;2024-01-15T07:02:09;2.90;80.60
19258;DHT22;9763;48.780;9.212;2024-01-15T07:05:32;2.90;80.70
19258;DHT22;9763;48.780;9.212;2024-01-15T07:08:56;2.90;81.00
19258;DHT22;9763;48.780;9.212;2024-01-15T07:12:21;2.90;80.00
19258;DHT22;9763;48.780;9.212;2024-01-15T07:15:46;2.90;80.00
19258;DHT22;9763;48.780;9.212;2024-01-15T07:19:09;2.90;80.50
19258;DHT22;9763;48.780;9.212;2024-01-15T07:22:33;2.90;80.30
19258;DHT22;9763;48.780;9.212;2024-01-15T07:25:57;2.90;80.20
19258;DHT22;9763;48.780;9.212;2024-01-15T07:29:22;3.30;80.00
19258;DHT22;9763;48.780;9.212;2024-01-15T07:32:45;2.90;79.90
19258;DHT22;9763;48.780;9.212;2024-01-15T07:36:09;3.00;80.20
19258;DHT22;9763;48.780;9.212;2024-01-15T07:39:33;3.00;80.40
19258;DHT22;9763;48.780;9.212;2024-01-15T07:42:56;3.00;80.10
19258;DHT22;9763;48.780;9.212;2024-01-15T07:46:22;3.00;80.10
19258;DHT22;9763;48.780;9.212;2024-01-15T07:49:47;3.00;80.40
19258;DHT22;9763;48.780;9.212;2024-01-15T07:53:11;3.00;79.80
19258;DHT22;9763;48.780;9.212;2024-01-15T07:56:35;3.00;79.00
19258;DHT22;9763;48.780;9.212;2024-01-15T08:00:16;3.00;79.50
19258;DHT22;9763;48.780;9.212;2024-01-15T08:03:42;3.10;80.10
19258;DHT22;9763;48.780;9.212;2024-01-15T08:07:06;3.10;79.70
19258;DHT22;9763;48.780;9.212;2024-01-15T08:10:30;3.10;80.00
19258;DHT22;9763;48.780;9.212;2024-01-15T08:13:53;3.10;79.40
19258;DHT22;9763;48.780;9.212;2024-01-15T08:17:17;3.10;79.90
19258;DHT22;9763;48.780;9.212;2024-01-15T08:20:42;3.10;78.90
19258;DHT22;9763;48.780;9.212;2024-01-15T08:24:06;3.20;79.50
19258;DHT22;9763;48.780;9.212;2024-01-15T08:27:30;3.20;80.20
19258;DHT22;9763;48.780;9.212;2024-01-15T08:30:54;3.20;79.80
19258;DHT22;9763;48.780;9.212;2024-01-15T08:34:18;3.20;78.30
19258;DHT22;9763;48.780;9.212;2024-01-15T08:37:46;3.30;79.10
19258;DHT22;9763;48.780;9.212;2024-01-15T08:41:09;3.30;78.40
19258;DHT22;9763;48.780;9.212;2024-01-15T08:44:34;3.60;78.20
19258;DHT22;9763;48.780;9.212;2024-01-15T08:47:58;3.30;79.30
19258;DHT22;9763;48.780;9.212;2024-01-15T08:51:23;3.40;80.00
19258;DHT22;9763;48.780;9.212;2024-01-15T08:54:48;3.40;80.10
19258;DHT22;9763;48.780;9.212;2024-01-15T08:58:13;3.40;80.00
19258;DHT22;9763;48.780;9.212;2024-01-15T09:01:38;3.50;80.20
19258;DHT22;9763;48.780;9.212;2024-01-15T09:05:02;3.50;80.10
19258;DHT22;9763;48.780;9.212;2024-01-15T09:08:26;3.60;80.20
19258;DHT22;9763;48.780;9.212;2024-01-15T09:11:52;3.60;80.20
19258;DHT22;9763;48.780;9.212;2024-01-15T09:15:16;3.70;80.50
19258;DHT22;9763;48.780;9.212;2024-01-15T09:18:39;3.80;80.50
19258;DHT22;9763;48.780;9.212;2024-01-15T09:22:03;3.80;80.70
19258;DHT22;9763;48.780;9.212;2024-01-15T09:25:27;3.80;80.40
19258;DHT22;9763;48.780;9.212;2024-01-15T09:28:52;3.90;80.70
19258;DHT22;9763;48.780;9.212;2024-01-15T09:32:15;3.90;80.40
19258;DHT22;9763;48.780;9.212;2024-01-15T09:35:39;3.90;80.50
19258;DHT22;9763;48.780;9.212;2024-01-15T09:39:03;4.00;80.90
19258;DHT22;9763;48.780;9.212;2024-01-15T09:42:28;4.00;81.20
19258;DHT22;9763;48.780;9.212;2024-01-15T09:45:55;4.10;80.80
19258;DHT22;9763;48.780;9.212;2024-01-15T09:49:19;4.10;80.20
19258;DHT22;9763;48.780;9.212;2024-01-15T09:52:43;4.20;80.10
19258;DHT22;9763;48.780;9.212;2024-01-15T09:56:08;4.20;80.60
19258;DHT22;9763;48.780;9.212;2024-01-15T09:59:34;4.20;80.50
19258;DHT22;9763;48.780;9.212;2024-01-15T10:03:01;4.30;79.90
19258;DHT22;9763;48.780;9.212;2024-01-15T10:06:27;4.30;79.80
19258;DHT22;9763;48.780;9.212;2024-01-15T10:09:51;4.30;80.10
19258;DHT22;9763;48.780;9.212;2024-01-15T10:13:15;4.30;80.10
19258;DHT22;9763;48.780;9.212;2024-01-15T10:16:39;4.30;79.90
19258;DHT22;9763;48.780;9.212;2024-01-15T10:20:08;4.40;80.20
19258;DHT22;9763;48.780;9.212;2024-01-15T10:23:33;4.40;80.20
19258;DHT22;9763;48.780;9.212;2024-01-15T10:27:05;4.40;80.00
19258;DHT22;9763;48.780;9.212;2024-01-15T10:30:29;4.40;79.30
19258;DHT22;9763;48.780;9.212;2024-01-15T10:34:00;4.40;80.30
19258;DHT22;9763;48.780;9.212;2024-01-15T10:37:34;4.40;80.10
19258;DHT22;9763;48.780;9.212;2024-01-15T10:40:58;4.40;80.40
19258;DHT22;9763;48.780;9.212;2024-01-15T10:44:21;4.50;80.40
19258;DHT22;9763;48.780;9.212;2024-01-15T10:47:45;4.50;80.40
19258;DHT22;9763;48.780;9.212;2024-01-15T10:51:09;4.50;80.60
19258;DHT22;9763;48.780;9.212;2024-01-15T10:54:35;4.50;79.40
19258;DHT22;9763;48.780;9.212;2024-01-15T10:58:01;4.50;79.30
19258;DHT22;9763;48.780;9.212;2024-01-15T11:01:26;4.60;79.20
19258;DHT22;9763;48.780;9.212;2024-01-15T11:04:52;4.60;79.40
19258;DHT22;9763;48.780;9.212;2024-01-15T11:08:17;4.60;79.30
19258;DHT22;9763;48.780;9.212;2024-01-15T11:11:44;4.70;80.20
19258;DHT22;9763;48.780;9.212;2024-01-15T11:15:09;4.70;80.00
19258;DHT22;9763;48.780;9.212;2024-01-15T11:18:35;4.80;79.40
19258;DHT22;9763;48.780;9.212;2024-01-15T11:22:03;4.80;80.00
19258;DHT22;9763;48.780;9.212;2024-01-15T11:25:35;4.80;80.30
19258;DHT22;9763;48.780;9.212;2024-01-15T11:29:02;4.80;79.60
19258;DHT22;9763;48.780;9.212;2024-01-15T11:32:33;4.80;79.30
19258;DHT22;9763;48.780;9.212;2024-01-15T11:35:57;4.80;79.80
19258;DHT22;9763;48.780;9.212;2024-01-15T11:39:39;4.80;79.60
19258;DHT22;9763;48.780;9.212;2024-01-15T11:43:05;4.90;79.70
19258;DHT22;9763;48.780;9.212;2024-01-15T11:46:35;4.80;79.50
19258;DHT22;9763;48.780;9.212;2024-01-15T11:50:08;4.80;79.10
19258;DHT22;9763;48.780;9.212;2024-01-15T11:53:43;4.80;79.20
19258;DHT22;9763;48.780;9.212;2024-01-15T11:57:12;4.70;77.00
19258;DHT22;9763;48.780;9.212;2024-01-15T12:00:47;4.70;78.20
19258;DHT22;9763;48.780;9.212;2024-01-15T12:04:14;4.60;78.80
19258;DHT22;9763;48.780;9.212;2024-01-15T12:07:40;4.60;77.90
19258;DHT22;9763;48.780;9.212;2024-01-15T12:11:07;4.50;78.10
19258;DHT22;9763;48.780;9.212;2024-01-15T12:14:37;4.50;79.20
19258;DHT22;9763;48.780;9.212;2024-01-15T12:18:02;4.40;78.90
19258;DHT22;9763;48.780;9.212;2024-01-15T12:21:28;4.40;78.60
19258;DHT22;9763;48.780;9.212;2024-01-15T12:24:52;4.40;78.10
19258;DHT22;9763;48.780;9.212;2024-01-15T12:28:15;4.40;78.70
19258;DHT22;9763;48.780;9.212;2024-01-15T12:31:39;4.40;78.50
19258;DHT22;9763;48.780;9.212;2024-01-15T12:35:03;4.30;79.10
19258;DHT22;9763;48.780;9.212;2024-01-15T12:38:29;4.30;79.50
19258;DHT22;9763;48.780;9.212;2024-01-15T12:41:54;4.40;79.30
19258;DHT22;9763;48.780;9.212;2024-01-15T12:45:18;4.20;79.30
19258;DHT22;9763;48.780;9.212;2024-01-15T12:48:41;4.10;79.70
19258;DHT22;9763;48.780;9.212;2024-01-15T12:52:09;4.10;80.10
19258;DHT22;9763;48.780;9.212;2024-01-15T12:55:34;4.00;80.40
19258;DHT22;9763;48.780;9.212;2024-01-15T12:58:58;4.00;80.50
19258;DHT22;9763;48.780;9.212;2024-01-15T13:02:23;3.90;80.80
19258;DHT22;9763;48.780;9.212;2024-01-15T13:05:48;3.90;81.00
19258;DHT22;9763;48.780;9.212;2024-01-15T13:09:13;3.90;81.50
19258;DHT22;9763;48.780;9.212;2024-01-15T13:12:38;3.80;81.80
19258;DHT22;9763;48.780;9.212;2024-01-15T13:16:04;3.80;82.20
19258;DHT22;9763;48.780;9.212;2024-01-15T13:19:28;3.90;82.50
19258;DHT22;9763;48.780;9.212;2024-01-15T13:22:51;3.90;82.60
19258;DHT22;9763;48.780;9.212;2024-01-15T13:26:15;3.90;82.60
19258;DHT22;9763;48.780;9.212;2024-01-15T13:29:41;3.90;82.80
19258;DHT22;9763;48.780;9.212;2024-01-15T13:33:05;3.90;82.70
19258;DHT22;9763;48.780;9.212;2024-01-15T13:36:30;3.90;82.90
19258;DHT22;9763;48.780;9.212;2024-01-15T13:39:53;3.90;82.80
19258;DHT22;9763;48.780;9.212;2024-01-15T13:43:18;3.90;82.80
19258;DHT22;9763;48.780;9.212;2024-01-15T13:46:43;3.90;83.00
19258;DHT22;9763;48.780;9.212;2024-01-15T13:50:07;3.90;83.10
19258;DHT22;9763;48.780;9.212;2024-01-15T13:53:32;3.80;83.20
19258;DHT22;9763;48.780;9.212;2024-01-15T13:56:55;3.80;83.30
19258;DHT22;9763;48.780;9.212;2024-01-15T14:00:21;3.80;83.20
19258;DHT22;9763;48.780;9.212;2024-01-15T14:03:47;3.80;83.40
19258;DHT22;9763;48.780;9.212;2024-01-15T14:07:10;3.80;83.20
19258;DHT22;9763;48.780;9.212;2024-01-15T14:10:34;3.80;83.40
19258;DHT22;9763;48.780;9.212;2024-01-15T14:13:58;3.80;83.10
19258;DHT22;9763;48.780;9.212;2024-01-15T14:17:21;3.80;83.60
19258;DHT22;9763;48.780;9.212;2024-01-15T14:20:46;3.70;83.30
19258;DHT22;9763;48.780;9.212;2024-01-15T14:24:09;3.70;83.70
19258;DHT22;9763;48.780;9.212;2024-01-15T14:27:33;3.80;83.90
19258;DHT22;9763;48.780;9.212;2024-01-15T14:30:57;3.80;83.90
19258;DHT22;9763;48.780;9.212;2024-01-15T14:34:22;3.70;83.90
19258;DHT22;9763;48.780;9.212;2024-01-15T14:37:48;3.80;83.80
19258;DHT22;9763;48.780;9.212;2024-01-15T14:41:12;3.70;84.10
19258;DHT22;9763;48.780;9.212;2024-01-15T14:44:36;3.70;83.80
19258;DHT22;9763;48.780;9.212;2024-01-15T14:48:01;3.70;83.70
19258;DHT22;9763;48.780;9.212;2024-01-15T14:51:25;3.70;83.70
19258;DHT22;9763;48.780;9.212;2024-01-15T14:54:50;3.70;83.30
19258;DHT22;9763;48.780;9.212;2024-01-15T14:58:14;3.60;83.50
19258;DHT22;9763;48.780;9.212;2024-01-15T15:01:39;3.60;83.20
19258;DHT22;9763;48.780;9.212;2024-01-15T15:05:04;3.50;83.10
19258;DHT22;9763;48.780;9.212;2024-01-15T15:08:29;3.50;83.30
19258;DHT22;9763;48.780;9.212;2024-01-15T15:11:54;3.50;83.40
19258;DHT22;9763;48.780;9.212;2024-01-15T15:15:18;3.40;83.20
19258;DHT22;9763;48.780;9.212;2024-01-15T15:18:44;3.40;83.20
19258;DHT22;9763;48.780;9.212;2024-01-15T15:22:09;3.70;83.50
19258;DHT22;9763;48.780;9.212;2024-01-15T15:25:33;3.30;83.30
19258;DHT22;9763;48.780;9.212;2024-01-15T15:28:58;3.30;83.40
19258;DHT22;9763;48.780;9.212;2024-01-15T15:32:23;3.30;83.80
19258;DHT22;9763;48.780;9.212;2024-01-15T15:35:47;3.30;83.70
19258;DHT22;9763;48.780;9.212;2024-01-15T15:39:13;3.30;83.90
19258;DHT22;9763;48.780;9.212;2024-01-15T15:42:37;3.30;83.40
19258;DHT22;9763;48.780;9.212;2024-01-15T15:46:02;3.30;83.40
19258;DHT22;9763;48.780;9.212;2024-01-15T15:49:26;3.30;83.30
19258;DHT22;9763;48.780;9.212;2024-01-15T15:52:50;3.30;83.20
19258;DHT22;9763;48.780;9.212;2024-01-15T15:56:14;3.30;83.40
19258;DHT22;9763;48.780;9.212;2024-01-15T15:59:38;3.30;83.50
19258;DHT22;9763;48.780;9.212;2024-01-15T16:03:03;3.30;83.50
19258;DHT22;9763;48.780;9.212;2024-01-15T16:06:27;3.30;83.70
19258;DHT22;9763;48.780;9.212;2024-01-15T16:09:51;3.30;83.80
19258;DHT22;9763;48.780;9.212;2024-01-15T16:13:15;3.30;83.80
19258;DHT22;9763;48.780;9.212;2024-01-15T16:16:40;3.30;83.80
19258;DHT22;9763;48.780;9.212;2024-01-15T16:20:25;3.30;83.60
19258;DHT22;9763;48.780;9.212;2024-01-15T16:24:08;3.30;82.30
19258;DHT22;9763;48.780;9.212;2024-01-15T16:27:47;3.30;83.10
19258;DHT22;9763;48.780;9.212;2024-01-15T16:31:11;3.30;83.20
19258;DHT22;9763;48.780;9.212;2024-01-15T16:34:34;3.30;83.00
19258;DHT22;9763;48.780;9.212;2024-01-15T16:38:00;3.60;82.80
19258;DHT22;9763;48.780;9.212;2024-01-15T16:41:25;3.30;82.60
19258;DHT22;9763;48.780;9.212;2024-01-15T16:44:49;3.30;82.60
19258;DHT22;9763;48.780;9.212;2024-01-15T16:48:12;3.30;82.60
19258;DHT22;9763;48.780;9.212;2024-01-15T16:51:36;3.20;82.40
19258;DHT22;9763;48.780;9.212;2024-01-15T16:55:02;3.20;82.30
19258;DHT22;9763;48.780;9.212;2024-01-15T16:58:26;3.20;82.00
19258;DHT22;9763;48.780;9.212;2024-01-15T17:01:50;3.20;82.30
19258;DHT22;9763;48.780;9.212;2024-01-15T17:05:13;3.20;82.70
19258;DHT22;9763;48.780;9.212;2024-01-15T17:08:37;3.20;82.70
19258;DHT22;9763;48.780;9.212;2024-01-15T17:12:03;3.20;82.70
19258;DHT22;9763;48.780;9.212;2024-01-15T17:15:27;3.20;82.40
19258;DHT22;9763;48.780;9.212;2024-01-15T17:18:51;3.20;82.50
19258;DHT22;9763;48.780;9.212;2024-01-15T17:22:15;3.20;82.60
19258;DHT22;9763;48.780;9.212;2024-01-15T17:25:39;3.20;82.80
19258;DHT22;9763;48.780;9.212;2024-01-15T17:29:05;3.20;82.90
19258;DHT22;9763;48.780;9.212;2024-01-15T17:32:28;3.10;82.70
19258;DHT22;9763;48.780;9.212;2024-01-15T17:35:53;3.20;83.10
19258;DHT22;9763;48.780;9.212;2024-01-15T17:39:18;3.10;83.20
19258;DHT22;9763;48.780;9.212;2024-01-15T17:42:42;3.10;82.90
19258;DHT22;9763;48.780;9.212;2024-01-15T17:46:09;3.10;82.50
19258;DHT22;9763;48.780;9.212;2024-01-15T17:49:34;3.10;81.70
19258;DHT22;9763;48.780;9.212;2024-01-15T17:52:58;3.10;82.50
19258;DHT22;9763;48.780;9.212;2024-01-15T17:56:22;3.10;82.30
19258;DHT22;9763;48.780;9.212;2024-01-15T17:59:45;3.10;82.40
19258;DHT22;9763;48.780;9.212;2024-01-15T18:03:10;3.10;82.30
19258;DHT22;9763;48.780;9.212;2024-01-15T18:06:34;3.10;82.80
19258;DHT22;9763;48.780;9.212;2024-01-15T18:09:58;3.10;82.40
19258;DHT22;9763;48.780;9.212;2024-01-15T18:13:22;3.00;82.30
19258;DHT22;9763;48.780;9.212;2024-01-15T18:16:46;3.00;82.20
19258;DHT22;9763;48.780;9.212;2024-01-15T18:20:14;3.00;81.80
19258;DHT22;9763;48.780;9.212;2024-01-15T18:23:38;3.00;81.10
19258;DHT22;9763;48.780;9.212;2024-01-15T18:27:02;2.90;81.10
19258;DHT22;9763;48.780;9.212;2024-01-15T18:30:26;2.80;80.40
19258;DHT22;9763;48.780;9.212;2024-01-15T18:33:50;2.80;80.60
19258;DHT22;9763;48.780;9.212;2024-01-15T18:37:15;2.70;80.60
19258;DHT22;9763;48.780;9.212;2024-01-15T18:40:39;2.70;80.50
19258;DHT22;9763;48.780;9.212;2024-01-15T18:44:03;2.60;80.40
19258;DHT22;9763;48.780;9.212;2024-01-15T18:47:27;2.60;80.60
19258;DHT22;9763;48.780;9.212;2024-01-15T18:50:51;2.50;80.50
19258;DHT22;9763;48.780;9.212;2024-01-15T18:54:16;2.50;80.40
19258;DHT22;9763;48.780;9.212;2024-01-15T18:57:39;2.50;80.40
19258;DHT22;9763;48.780;9.212;2024-01-15T19:01:03;2.50;80.70
19258;DHT22;9763;48.780;9.212;2024-01-15T19:04:27;2.50;81.00
19258;DHT22;9763;48.780;9.212;2024-01-15T19:07:51;2.50;81.30
19258;DHT22;9763;48.780;9.212;2024-01-15T19:11:16;2.50;81.50
19258;DHT22;9763;48.780;9.212;2024-01-15T19:14:40;2.50;81.10
19258;DHT22;9763;48.780;9.212;2024-01-15T19:18:04;2.50;80.30
19258;DHT22;9763;48.780;9.212;2024-01-15T19:21:29;2.60;80.10
19258;DHT22;9763;48.780;9.212;2024-01-15T19:24:53;2.60;80.70
19258;DHT22;9763;48.780;9.212;2024-01-15T19:28:18;2.60;80.90
19258;DHT22;9763;48.780;9.212;2024-01-15T19:31:42;2.60;80.40
19258;DHT22;9763;48.780;9.212;2024-01-15T19:35:06;2.70;80.60
19258;DHT22;9763;48.780;9.212;2024-01-15T19:38:30;2.70;80.40
19258;DHT22;9763;48.780;9.212;2024-01-15T19:41:54;2.70;80.20
19258;DHT22;9763;48.780;9.212;2024-01-15T19:45:20;2.70;80.50
19258;DHT22;9763;48.780;9.212;2024-01-15T19:48:45;2.70;79.30
19258;DHT22;9763;48.780;9.212;2024-01-15T19:52:08;2.80;80.00
19258;DHT22;9763;48.780;9.212;2024-01-15T19:55:32;2.80;80.50
19258;DHT22;9763;48.780;9.212;2024-01-15T19:58:55;2.80;80.30
19258;DHT22;9763;48.780;9.212;2024-01-15T20:02:20;2.80;80.20
19258;DHT22;9763;48.780;9.212;2024-01-15T20:05:44;2.80;80.00
19258;DHT22;9763;48.780;9.212;2024-01-15T20:09:09;2.80;80.10
19258;DHT22;9763;48.780;9.212;2024-01-15T20:12:32;2.90;79.50
19258;DHT22;9763;48.780;9.212;2024-01-15T20:15:56;2.90;79.90
19258;DHT22;9763;48.780;9.212;2024-01-15T20:19:21;2.90;80.00
19258;DHT22;9763;48.780;9.212;2024-01-15T20:22:45;2.90;80.10
19258;DHT22;9763;48.780;9.212;2024-01-15T20:26:08;2.90;79.80
19258;DHT22;9763;48.780;9.212;2024-01-15T20:29:32;2.90;79.60
19258;DHT22;9763;48.780;9.212;2024-01-15T20:32:55;2.90;79.90
19258;DHT22;9763;48.780;9.212;2024-01-15T20:36:21;2.90;79.80
19258;DHT22;9763;48.780;9.212;2024-01-15T20:39:44;2.90;79.50
19258;DHT22;9763;48.780;9.212;2024-01-15T20:43:08;2.90;79.70
19258;DHT22;9763;48.780;9.212;2024-01-15T20:46:31;2.90;79.70
19258;DHT22;9763;48.780;9.212;2024-01-15T20:49:55;2.90;80.10
19258;DHT22;9763;48.780;9.212;2024-01-15T20:53:20;3.00;79.80
19258;DHT22;9763;48.780;9.212;2024-01-15T20:56:44;3.00;80.20
19258;DHT22;9763;48.780;9.212;2024-01-15T21:00:11;3.00;80.20
19258;DHT22;9763;48.780;9.212;2024-01-15T21:03:36;3.00;80.10
19258;DHT22;9763;48.780;9.212;2024-01-15T21:06:59;3.00;80.20
19258;DHT22;9763;48.780;9.212;2024-01-15T21:10:24;3.00;80.20
19258;DHT22;9763;48.780;9.212;2024-01-15T21:13:48;3.00;80.30
19258;DHT22;9763;48.780;9.212;2024-01-15T21:17:12;3.10;80.30
19258;DHT22;9763;48.780;9.212;2024-01-15T21:20:35;3.10;80.10
19258;DHT22;9763;48.780;9.212;2024-01-15T21:23:59;3.10;80.40
19258;DHT22;9763;48.780;9.212;2024-01-15T21:27:24;3.10;80.30
19258;DHT22;9763;48.780;9.212;2024-01-15T21:30:49;3.10;80.10
19258;DHT22;9763;48.780;9.212;2024-01-15T21:34:14;3.10;79.80
19258;DHT22;9763;48.780;9.212;2024-01-15T21:37:41;3.10;79.90
19258;DHT22;9763;48.780;9.212;2024-01-15T21:41:09;3.00;79.80
19258;DHT22;9763;48.780;9.212;2024-01-15T21:44:34;3.00;79.30
19258;DHT22;9763;48.780;9.212;2024-01-15T21:47:58;3.00;79.50
19258;DHT22;9763;48.780;9.212;2024-01-15T21:51:22;3.00;79.50
19258;DHT22;9763;48.780;9.212;2024-01-15T21:54:45;3.00;79.60
19258;DHT22;9763;48.780;9.212;2024-01-15T21:58:09;2.90;79.60
19258;DHT22;9763;48.780;9.212;2024-01-15T22:01:34;2.90;79.40
19258;DHT22;9763;48.780;9.212;2024-01-15T22:04:58;2.90;79.70
19258;DHT22;9763;48.780;9.212;2024-01-15T22:08:22;2.90;79.40
19258;DHT22;9763;48.780;9.212;2024-01-15T22:11:46;2.90;79.50
19258;DHT22;9763;48.780;9.212;2024-01-15T22:15:10;2.90;79.70